Time;durP1;ratioP1;P1;durP2;ratioP2;P2;SDS_P1;SDS_P2;PMS_P1;PMS_P2;Temp;Humidity;BMP_temperature;BMP_pressure;BME280_temperature;BME280_humidity;BME280_pressure;Samples;Min_cycle;Max_cycle;Signal;HPM_P1;HPM_P2
2023/01/15 00:00:50;;;;;;;1.27;0.70;;;;;;;;;;5017509;28;20173;-88
2023/01/15 00:03:56;;;;;;;1.07;0.50;;;;;;;;;;5016998;28;20521;-89
2023/01/15 00:06:59;;;;;;;0.73;0.60;;;;;;;;;;5029022;28;20173;-88
2023/01/15 00:10:04;;;;;;;2.77;0.60;;;;;;;;;;5019569;28;20556;-89
2023/01/15 00:13:09;;;;;;;0.93;0.70;;;;;;;;;;5027796;28;20177;-89
2023/01/15 00:16:19;;;;;;;1.10;0.63;;;;;;;;;;5015376;28;20209;-88
2023/01/15 00:19:23;;;;;;;1.27;0.77;;;;;;;;;;5025864;28;20193;-88
2023/01/15 00:22:28;;;;;;;0.80;0.77;;;;;;;;;;5015099;28;20217;-88
2023/01/15 00:28:55;;;;;;;1.40;0.90;;;;;;;;;;5026036;28;20536;-89
2023/01/15 00:32:03;;;;;;;1.20;0.80;;;;;;;;;;5003416;28;20214;-89
2023/01/15 00:35:29;;;;;;;1.37;0.80;;;;;;;;;;5003175;28;20176;-89
2023/01/15 00:38:33;;;;;;;1.83;0.90;;;;;;;;;;5014235;28;20177;-89
2023/01/15 00:41:38;;;;;;;1.00;0.80;;;;;;;;;;5003703;28;20208;-88
2023/01/15 00:44:42;;;;;;;1.80;1.07;;;;;;;;;;5024916;28;20200;-89
2023/01/15 00:47:47;;;;;;;1.97;1.03;;;;;;;;;;5013248;28;20536;-89
2023/01/15 00:50:51;;;;;;;1.00;0.80;;;;;;;;;;5013924;28;20200;-89
2023/01/15 00:53:56;;;;;;;1.77;0.80;;;;;;;;;;5013553;28;20181;-88
2023/01/15 00:57:00;;;;;;;0.80;0.70;;;;;;;;;;5013144;28;20208;-88
2023/01/15 01:00:05;;;;;;;0.97;0.83;;;;;;;;;;5013298;28;20209;-88
2023/01/15 01:03:09;;;;;;;1.17;0.90;;;;;;;;;;5013563;28;20176;-89
2023/01/15 01:06:15;;;;;;;1.20;0.90;;;;;;;;;;5013330;28;20173;-88
2023/01/15 01:09:19;;;;;;;0.83;0.60;;;;;;;;;;5013158;28;20177;-89
2023/01/15 01:12:25;;;;;;;0.77;0.60;;;;;;;;;;5013508;28;20220;-89
2023/01/15 01:15:29;;;;;;;1.57;0.80;;;;;;;;;;5024053;28;20201;-89
2023/01/15 01:18:33;;;;;;;0.67;0.57;;;;;;;;;;5024417;28;20197;-88
2023/01/15 01:21:39;;;;;;;2.03;0.90;;;;;;;;;;5012828;28;20216;-89
2023/01/15 01:24:43;;;;;;;0.90;0.63;;;;;;;;;;5013050;28;20197;-88
2023/01/15 01:27:48;;;;;;;1.00;0.90;;;;;;;;;;5013166;28;20185;-88
2023/01/15 01:30:52;;;;;;;1.27;0.80;;;;;;;;;;5001585;28;20220;-88
2023/01/15 01:33:58;;;;;;;0.70;0.63;;;;;;;;;;5013259;28;20177;-89
2023/01/15 01:37:02;;;;;;;2.13;0.80;;;;;;;;;;5002228;28;20205;-88
2023/01/15 01:40:07;;;;;;;1.73;0.80;;;;;;;;;;5002565;28;20189;-88
2023/01/15 01:43:24;;;;;;;1.30;0.80;;;;;;;;;;5026064;28;20177;-88
2023/01/15 01:46:31;;;;;;;0.80;0.73;;;;;;;;;;5025605;28;20169;-88
2023/01/15 01:49:38;;;;;;;1.13;0.60;;;;;;;;;;5014338;28;20180;-88
2023/01/15 01:52:46;;;;;;;1.20;0.90;;;;;;;;;;5024951;28;20213;-88
2023/01/15 01:55:52;;;;;;;6.13;0.90;;;;;;;;;;5002034;28;20224;-88
2023/01/15 01:58:56;;;;;;;1.80;0.60;;;;;;;;;;5014523;28;20193;-87
2023/01/15 02:02:02;;;;;;;0.87;0.63;;;;;;;;;;5014202;28;20212;-88
2023/01/15 02:05:07;;;;;;;1.00;0.70;;;;;;;;;;5024838;28;20177;-88
2023/01/15 02:08:12;;;;;;;1.00;0.80;;;;;;;;;;5013507;28;20169;-88
2023/01/15 02:11:20;;;;;;;1.67;0.80;;;;;;;;;;5003000;28;20212;-88
2023/01/15 02:14:36;;;;;;;1.87;0.80;;;;;;;;;;5003431;28;20185;-88
2023/01/15 02:17:48;;;;;;;1.17;0.87;;;;;;;;;;5025507;28;20514;-88
2023/01/15 02:20:55;;;;;;;0.60;0.60;;;;;;;;;;5025123;28;20216;-88
2023/01/15 02:24:15;;;;;;;1.07;0.77;;;;;;;;;;5013508;28;20177;-88
2023/01/15 02:27:24;;;;;;;1.80;0.70;;;;;;;;;;5013196;28;20177;-88
2023/01/15 02:30:39;;;;;;;1.67;0.87;;;;;;;;;;5012802;28;20177;-88
2023/01/15 02:33:53;;;;;;;1.07;0.67;;;;;;;;;;5013082;28;20192;-88
2023/01/15 02:37:05;;;;;;;0.73;0.53;;;;;;;;;;5013099;28;20221;-88
2023/01/15 02:40:12;;;;;;;1.23;0.80;;;;;;;;;;5001511;28;20192;-88
2023/01/15 02:43:18;;;;;;;1.27;0.87;;;;;;;;;;5013168;28;20177;-88
2023/01/15 02:46:29;;;;;;;1.30;0.90;;;;;;;;;;5012621;28;20640;-88
2023/01/15 02:49:37;;;;;;;1.33;0.80;;;;;;;;;;5011912;28;20181;-87
2023/01/15 02:52:48;;;;;;;1.03;0.70;;;;;;;;;;5001062;28;20220;-87
2023/01/15 02:56:02;;;;;;;1.07;0.87;;;;;;;;;;5012651;28;20185;-88
2023/01/15 02:59:17;;;;;;;1.30;0.90;;;;;;;;;;5011939;28;20197;-88
2023/01/15 03:02:26;;;;;;;1.10;0.70;;;;;;;;;;5011147;28;20208;-87
2023/01/15 03:05:40;;;;;;;1.60;0.73;;;;;;;;;;5011456;28;20540;-88
2023/01/15 03:08:45;;;;;;;1.20;0.70;;;;;;;;;;5011031;28;20177;-87
2023/01/15 03:12:22;;;;;;;1.17;0.70;;;;;;;;;;5011841;28;20217;-87
2023/01/15 03:19:33;;;;;;;2.20;0.70;;;;;;;;;;5021326;28;20181;-87
2023/01/15 03:22:45;;;;;;;1.43;0.90;;;;;;;;;;5011526;28;20211;-88
2023/01/15 03:25:49;;;;;;;1.27;0.83;;;;;;;;;;5022325;28;20201;-88
2023/01/15 03:28:55;;;;;;;1.63;0.70;;;;;;;;;;5022202;28;20185;-88
2023/01/15 03:32:00;;;;;;;1.67;1.00;;;;;;;;;;4999927;28;20216;-87
2023/01/15 03:35:09;;;;;;;0.70;0.70;;;;;;;;;;5011148;28;20177;-88
2023/01/15 03:38:23;;;;;;;1.57;0.80;;;;;;;;;;5011093;28;20177;-88
2023/01/15 03:41:49;;;;;;;1.57;0.80;;;;;;;;;;5010797;28;20216;-88
2023/01/15 03:44:56;;;;;;;1.83;0.90;;;;;;;;;;4999419;28;20201;-88
2023/01/15 03:48:09;;;;;;;1.27;0.93;;;;;;;;;;5011145;28;20173;-88
2023/01/15 03:51:20;;;;;;;1.03;0.80;;;;;;;;;;5022042;28;20212;-88
2023/01/15 03:54:47;;;;;;;1.10;0.90;;;;;;;;;;5010540;28;20181;-88
2023/01/15 03:58:05;;;;;;;1.27;0.80;;;;;;;;;;5010831;28;20205;-88
2023/01/15 04:01:19;;;;;;;0.83;0.70;;;;;;;;;;5010857;28;20695;-88
2023/01/15 04:04:25;;;;;;;1.10;0.90;;;;;;;;;;5033019;28;20200;-87
2023/01/15 04:07:31;;;;;;;1.37;0.83;;;;;;;;;;5010230;28;20169;-88
2023/01/15 04:10:35;;;;;;;1.43;0.87;;;;;;;;;;5010184;28;20181;-88
2023/01/15 04:13:41;;;;;;;0.97;0.77;;;;;;;;;;5021415;28;20177;-88
2023/01/15 04:16:55;;;;;;;1.87;0.80;;;;;;;;;;5010460;28;20205;-89
2023/01/15 04:20:05;;;;;;;1.67;0.67;;;;;;;;;;5009978;28;20177;-88
2023/01/15 04:23:10;;;;;;;1.03;0.80;;;;;;;;;;5009829;28;20177;-89
2023/01/15 04:26:14;;;;;;;1.00;0.87;;;;;;;;;;5010553;28;20387;-89
2023/01/15 04:29:18;;;;;;;1.83;0.93;;;;;;;;;;4999351;28;20173;-88
2023/01/15 04:32:22;;;;;;;0.97;0.70;;;;;;;;;;5025251;28;20212;-88
2023/01/15 04:35:26;;;;;;;1.80;0.73;;;;;;;;;;5014096;28;20644;-88
2023/01/15 04:38:31;;;;;;;0.70;0.60;;;;;;;;;;5003288;28;20228;-89
2023/01/15 04:44:57;;;;;;;1.33;0.60;;;;;;;;;;5025511;28;20200;-88
2023/01/15 04:48:03;;;;;;;1.40;0.70;;;;;;;;;;5003615;28;20173;-88
2023/01/15 04:51:07;;;;;;;0.90;0.60;;;;;;;;;;5025569;28;20695;-88
2023/01/15 04:54:14;;;;;;;0.97;0.77;;;;;;;;;;5003328;28;20176;-88
2023/01/15 04:57:18;;;;;;;5.87;1.00;;;;;;;;;;5014193;28;20208;-89
2023/01/15 05:00:22;;;;;;;1.37;0.80;;;;;;;;;;5014529;28;20176;-88
2023/01/15 05:03:27;;;;;;;0.87;0.77;;;;;;;;;;5002955;28;20655;-88
2023/01/15 05:06:32;;;;;;;0.70;0.50;;;;;;;;;;5014006;28;20192;-88
2023/01/15 05:09:36;;;;;;;0.80;0.70;;;;;;;;;;5025474;28;20181;-88
2023/01/15 05:12:40;;;;;;;0.70;0.50;;;;;;;;;;5013752;28;20216;-89
2023/01/15 05:15:45;;;;;;;1.17;0.77;;;;;;;;;;5025128;28;20185;-88
2023/01/15 05:18:51;;;;;;;0.83;0.60;;;;;;;;;;5003336;28;20177;-88
2023/01/15 05:21:55;;;;;;;1.07;0.50;;;;;;;;;;5013515;28;20217;-88
2023/01/15 05:24:59;;;;;;;0.63;0.57;;;;;;;;;;5013519;28;20192;-88
2023/01/15 05:28:04;;;;;;;1.37;0.60;;;;;;;;;;5013390;28;20192;-89
2023/01/15 05:31:10;;;;;;;0.80;0.60;;;;;;;;;;5013666;28;20217;-89
2023/01/15 05:34:14;;;;;;;1.60;0.50;;;;;;;;;;5002324;28;20176;-89
2023/01/15 05:37:18;;;;;;;0.73;0.70;;;;;;;;;;5013370;28;20208;-88
2023/01/15 05:40:22;;;;;;;1.27;0.50;;;;;;;;;;5013043;28;20176;-88
2023/01/15 05:43:26;;;;;;;2.10;0.53;;;;;;;;;;5012720;28;20180;-88
2023/01/15 05:46:31;;;;;;;1.03;0.50;;;;;;;;;;5012997;28;20193;-88
2023/01/15 05:49:35;;;;;;;0.50;0.50;;;;;;;;;;5012827;28;20177;-88
2023/01/15 05:52:39;;;;;;;1.37;0.60;;;;;;;;;;5013218;28;20216;-88
2023/01/15 05:55:43;;;;;;;0.60;0.60;;;;;;;;;;5012492;28;20185;-87
2023/01/15 05:58:47;;;;;;;1.00;0.50;;;;;;;;;;5012564;28;20204;-88
2023/01/15 06:01:52;;;;;;;1.30;0.60;;;;;;;;;;5012916;28;20691;-87
2023/01/15 06:04:56;;;;;;;0.60;0.60;;;;;;;;;;5013111;28;20176;-88
2023/01/15 06:08:01;;;;;;;0.57;0.57;;;;;;;;;;5012893;28;20173;-87
2023/01/15 06:11:06;;;;;;;1.00;0.60;;;;;;;;;;5013421;28;20220;-87
2023/01/15 06:14:14;;;;;;;0.80;0.60;;;;;;;;;;5013302;28;20177;-88
2023/01/15 06:17:18;;;;;;;0.83;0.70;;;;;;;;;;5012548;28;20205;-87
2023/01/15 06:20:22;;;;;;;1.30;0.70;;;;;;;;;;5001051;28;20193;-88
2023/01/15 06:23:26;;;;;;;2.17;0.77;;;;;;;;;;5011792;28;20536;-88
2023/01/15 06:26:30;;;;;;;0.97;0.60;;;;;;;;;;5023747;28;20185;-88
2023/01/15 06:29:34;;;;;;;1.10;0.60;;;;;;;;;;5023332;28;20644;-88
2023/01/15 06:32:38;;;;;;;1.37;0.47;;;;;;;;;;5011758;28;20212;-87
2023/01/15 06:35:42;;;;;;;0.83;0.43;;;;;;;;;;5011605;28;20645;-88
2023/01/15 06:38:47;;;;;;;0.43;0.40;;;;;;;;;;5011685;28;20212;-89
2023/01/15 06:48:37;;;;;;;1.40;0.40;;;;;;;;;;5011830;28;20640;-88
2023/01/15 06:51:41;;;;;;;0.93;0.40;;;;;;;;;;5011965;28;20216;-88
2023/01/15 06:54:45;;;;;;;1.57;0.50;;;;;;;;;;5000330;28;20184;-88
2023/01/15 06:57:49;;;;;;;0.57;0.47;;;;;;;;;;5022931;28;20220;-88
2023/01/15 07:00:55;;;;;;;0.47;0.40;;;;;;;;;;5011375;28;20212;-87
2023/01/15 07:03:59;;;;;;;0.40;0.40;;;;;;;;;;5022957;28;20177;-87
2023/01/15 07:07:03;;;;;;;0.40;0.40;;;;;;;;;;5000613;28;20181;-87
2023/01/15 07:10:08;;;;;;;0.93;0.40;;;;;;;;;;5022669;28;20181;-88
2023/01/15 07:13:12;;;;;;;1.53;0.50;;;;;;;;;;5011737;28;20177;-87
2023/01/15 07:16:26;;;;;;;0.73;0.73;;;;;;;;;;5011564;28;20180;-88
2023/01/15 07:19:30;;;;;;;0.50;0.50;;;;;;;;;;5022474;28;20173;-87
2023/01/15 07:22:34;;;;;;;0.97;0.50;;;;;;;;;;5011030;28;20216;-88
2023/01/15 07:25:38;;;;;;;0.40;0.30;;;;;;;;;;5011656;28;20177;-88
2023/01/15 07:28:43;;;;;;;2.93;1.73;;;;;;;;;;5011178;28;20172;-88
2023/01/15 07:31:47;;;;;;;0.80;0.80;;;;;;;;;;5011055;28;20216;-87
2023/01/15 07:34:51;;;;;;;2.13;1.20;;;;;;;;;;5010490;28;20180;-87
2023/01/15 07:37:55;;;;;;;1.83;1.63;;;;;;;;;;5021494;28;20204;-87
2023/01/15 07:51:07;;;;;;;1.90;0.80;;;;;;;;;;5021402;28;20217;-88
2023/01/15 07:54:11;;;;;;;0.50;0.40;;;;;;;;;;5010618;28;20180;-87
2023/01/15 07:57:18;;;;;;;0.40;0.40;;;;;;;;;;5009887;28;20656;-88
2023/01/15 08:00:24;;;;;;;0.93;0.43;;;;;;;;;;5022035;28;20181;-87
2023/01/15 08:03:28;;;;;;;0.60;0.50;;;;;;;;;;5011290;28;20177;-88
2023/01/15 08:06:32;;;;;;;0.40;0.40;;;;;;;;;;5014218;28;20185;-88
2023/01/15 08:09:36;;;;;;;0.40;0.40;;;;;;;;;;5013972;28;20173;-89
2023/01/15 08:16:05;;;;;;;1.40;1.30;;;;;;;;;;5013693;28;20181;-88
2023/01/15 08:19:09;;;;;;;0.70;0.50;;;;;;;;;;5025009;28;20208;-87
2023/01/15 08:22:14;;;;;;;0.40;0.40;;;;;;;;;;5036467;28;20216;-87
2023/01/15 08:25:21;;;;;;;0.43;0.30;;;;;;;;;;5014373;28;20180;-88
2023/01/15 08:28:26;;;;;;;0.33;0.33;;;;;;;;;;5014872;28;20177;-87
2023/01/15 08:31:31;;;;;;;0.50;0.50;;;;;;;;;;5014547;28;20216;-87
2023/01/15 08:34:35;;;;;;;1.83;1.00;;;;;;;;;;5014933;28;20181;-88
2023/01/15 08:37:41;;;;;;;1.37;0.50;;;;;;;;;;5026014;28;20672;-87
2023/01/15 08:40:57;;;;;;;0.50;0.40;;;;;;;;;;5014726;28;20173;-88
2023/01/15 08:44:01;;;;;;;1.13;0.50;;;;;;;;;;5013656;28;20197;-87
2023/01/15 08:47:05;;;;;;;2.27;0.50;;;;;;;;;;5013330;28;20181;-87
2023/01/15 08:50:10;;;;;;;0.93;0.40;;;;;;;;;;5002952;28;20177;-88
2023/01/15 08:53:14;;;;;;;0.67;0.50;;;;;;;;;;5037240;28;20180;-87
2023/01/15 08:56:19;;;;;;;1.53;0.50;;;;;;;;;;5013450;28;20173;-87
2023/01/15 08:59:23;;;;;;;0.50;0.50;;;;;;;;;;5002618;28;20216;-89
2023/01/15 09:02:28;;;;;;;0.60;0.40;;;;;;;;;;5012586;28;20221;-88
2023/01/15 09:05:33;;;;;;;0.50;0.50;;;;;;;;;;5013031;28;20197;-88
2023/01/15 09:08:37;;;;;;;0.80;0.80;;;;;;;;;;5001539;28;20189;-89
2023/01/15 09:11:41;;;;;;;2.13;0.60;;;;;;;;;;5001289;28;20212;-88
2023/01/15 09:14:45;;;;;;;1.00;0.50;;;;;;;;;;5012496;28;20181;-89
2023/01/15 09:17:49;;;;;;;4.53;0.50;;;;;;;;;;5012332;28;20177;-88
2023/01/15 09:20:53;;;;;;;0.40;0.40;;;;;;;;;;5023634;28;20220;-88
2023/01/15 09:23:58;;;;;;;1.03;0.40;;;;;;;;;;5001326;28;20181;-88
2023/01/15 09:27:02;;;;;;;0.57;0.47;;;;;;;;;;5023948;28;20177;-87
2023/01/15 09:30:09;;;;;;;2.73;1.43;;;;;;;;;;5013993;28;20181;-87
2023/01/15 09:33:13;;;;;;;2.00;1.03;;;;;;;;;;5014734;28;20517;-88
2023/01/15 09:36:25;;;;;;;0.83;0.30;;;;;;;;;;5002998;28;20181;-88
2023/01/15 09:39:29;;;;;;;2.00;0.60;;;;;;;;;;5016334;28;20205;-87
2023/01/15 09:42:48;;;;;;;0.40;0.40;;;;;;;;;;5016092;28;20583;-87
2023/01/15 09:46:18;;;;;;;0.77;0.67;;;;;;;;;;5015345;28;20177;-88
2023/01/15 09:49:59;;;;;;;0.33;0.33;;;;;;;;;;5031701;28;20683;-88
2023/01/15 09:53:33;;;;;;;0.40;0.40;;;;;;;;;;5013997;28;20181;-88
2023/01/15 09:56:38;;;;;;;0.40;0.40;;;;;;;;;;5013563;28;20177;-88
2023/01/15 09:59:46;;;;;;;2.33;1.13;;;;;;;;;;5024484;28;20205;-88
2023/01/15 10:03:09;;;;;;;0.30;0.30;;;;;;;;;;5014052;28;20212;-87
2023/01/15 10:06:30;;;;;;;0.67;0.50;;;;;;;;;;5003550;28;20173;-89
2023/01/15 10:09:38;;;;;;;1.90;1.70;;;;;;;;;;5025636;28;20177;-88
2023/01/15 10:12:44;;;;;;;0.50;0.50;;;;;;;;;;5013866;28;20217;-87
2023/01/15 10:15:48;;;;;;;0.60;0.60;;;;;;;;;;5024857;28;20181;-88
2023/01/15 10:18:54;;;;;;;0.73;0.50;;;;;;;;;;5012974;28;20205;-88
2023/01/15 10:22:23;;;;;;;0.30;0.30;;;;;;;;;;5001845;28;20213;-88
2023/01/15 10:25:34;;;;;;;0.30;0.30;;;;;;;;;;5014240;28;20648;-89
2023/01/15 10:29:08;;;;;;;0.40;0.37;;;;;;;;;;5002876;28;20181;-88
2023/01/15 10:32:55;;;;;;;2.87;1.87;;;;;;;;;;5024693;28;20214;-88
2023/01/15 10:36:28;;;;;;;0.53;0.43;;;;;;;;;;4953456;28;20183;-88
2023/01/15 10:39:49;;;;;;;5.00;2.40;;;;;;;;;;4954629;28;20228;-88
2023/01/15 10:43:15;;;;;;;0.80;0.50;;;;;;;;;;5012542;28;20220;-88
2023/01/15 10:46:25;;;;;;;2.67;1.27;;;;;;;;;;5013799;28;20169;-88
2023/01/15 10:49:30;;;;;;;0.40;0.40;;;;;;;;;;5012485;28;20177;-88
2023/01/15 10:52:37;;;;;;;1.03;0.50;;;;;;;;;;5012176;28;20212;-88
2023/01/15 10:55:46;;;;;;;5.53;3.03;;;;;;;;;;5012904;28;20185;-88
2023/01/15 10:59:20;;;;;;;0.40;0.40;;;;;;;;;;5013168;28;20208;-87
2023/01/15 11:02:39;;;;;;;0.30;0.30;;;;;;;;;;5016049;28;20216;-88
2023/01/15 11:05:47;;;;;;;0.67;0.67;;;;;;;;;;5015423;28;20536;-88
2023/01/15 11:08:54;;;;;;;0.40;0.40;;;;;;;;;;5014361;28;20173;-88
2023/01/15 11:22:16;;;;;;;0.80;0.70;;;;;;;;;;5014256;28;20216;-88
2023/01/15 11:25:26;;;;;;;2.40;1.80;;;;;;;;;;5015298;28;20640;-88
2023/01/15 11:28:39;;;;;;;5.27;3.83;;;;;;;;;;5020316;28;20652;-88
2023/01/15 11:31:43;;;;;;;3.30;3.00;;;;;;;;;;5020594;28;20217;-88
2023/01/15 11:34:57;;;;;;;0.80;0.80;;;;;;;;;;5031629;28;20196;-89
2023/01/15 11:38:13;;;;;;;0.60;0.60;;;;;;;;;;5021425;28;20192;-88
2023/01/15 11:51:47;;;;;;;0.53;0.50;;;;;;;;;;5046782;28;20216;-88
2023/01/15 11:54:54;;;;;;;0.40;0.40;;;;;;;;;;5022733;28;20181;-88
2023/01/15 11:58:00;;;;;;;0.80;0.40;;;;;;;;;;5032472;28;20173;-88
2023/01/15 12:01:04;;;;;;;0.90;0.83;;;;;;;;;;5020714;28;20212;-88
2023/01/15 12:04:44;;;;;;;0.90;0.53;;;;;;;;;;5020828;28;20196;-87
2023/01/15 12:07:52;;;;;;;1.37;0.40;;;;;;;;;;5008498;28;20181;-87
2023/01/15 12:11:05;;;;;;;1.30;0.63;;;;;;;;;;5018608;28;20209;-87
2023/01/15 12:14:34;;;;;;;0.50;0.50;;;;;;;;;;5018143;28;20656;-87
2023/01/15 12:17:50;;;;;;;0.43;0.40;;;;;;;;;;5018683;28;20180;-88
2023/01/15 12:21:01;;;;;;;0.90;0.80;;;;;;;;;;5007746;28;20216;-88
2023/01/15 12:25:03;;;;;;;0.30;0.30;;;;;;;;;;5018221;28;20173;-88
2023/01/15 12:28:23;;;;;;;1.20;1.10;;;;;;;;;;5001361;28;20563;-89
2023/01/15 12:31:42;;;;;;;0.90;0.80;;;;;;;;;;5017645;28;20221;-88
2023/01/15 12:35:06;;;;;;;0.50;0.50;;;;;;;;;;5017625;28;20181;-88
2023/01/15 12:38:21;;;;;;;1.17;0.60;;;;;;;;;;5017399;28;20177;-88
2023/01/15 12:44:59;;;;;;;1.10;1.00;;;;;;;;;;5017089;28;20205;-87
2023/01/15 12:48:28;;;;;;;0.80;0.60;;;;;;;;;;5015859;28;20177;-87
2023/01/15 12:51:50;;;;;;;0.60;0.50;;;;;;;;;;5014745;28;20209;-87
2023/01/15 12:55:03;;;;;;;1.87;1.00;;;;;;;;;;5003658;28;20177;-87
2023/01/15 12:58:42;;;;;;;0.60;0.50;;;;;;;;;;5013922;28;20181;-88
2023/01/15 13:01:53;;;;;;;0.90;0.60;;;;;;;;;;5014161;28;20228;-87
2023/01/15 13:05:18;;;;;;;0.60;0.43;;;;;;;;;;5025395;28;20177;-87
2023/01/15 13:08:36;;;;;;;0.80;0.40;;;;;;;;;;5014409;28;20182;-87
2023/01/15 13:11:41;;;;;;;0.40;0.40;;;;;;;;;;5027961;28;20213;-87
2023/01/15 13:14:45;;;;;;;2.77;1.40;;;;;;;;;;5004913;28;20648;-87
2023/01/15 13:18:11;;;;;;;0.60;0.60;;;;;;;;;;5014574;28;20177;-87
2023/01/15 13:21:18;;;;;;;1.63;1.53;;;;;;;;;;5013998;28;20212;-87
2023/01/15 13:24:29;;;;;;;2.67;2.20;;;;;;;;;;5002368;28;20176;-88
2023/01/15 13:27:53;;;;;;;0.97;0.67;;;;;;;;;;5013796;28;20522;-87
2023/01/15 13:31:28;;;;;;;7.23;5.80;;;;;;;;;;5014209;28;20213;-87
2023/01/15 13:34:47;;;;;;;0.40;0.40;;;;;;;;;;5014234;28;20181;-88
2023/01/15 13:37:55;;;;;;;0.80;0.70;;;;;;;;;;5025196;28;20181;-88
2023/01/15 13:40:59;;;;;;;1.20;1.10;;;;;;;;;;5002706;28;20229;-88
2023/01/15 13:44:03;;;;;;;2.00;1.90;;;;;;;;;;5002232;28;20200;-87
2023/01/15 13:47:12;;;;;;;1.33;0.57;;;;;;;;;;5013869;28;20177;-88
2023/01/15 13:50:26;;;;;;;1.90;1.30;;;;;;;;;;5024746;28;20653;-87
2023/01/15 13:53:43;;;;;;;1.47;1.37;;;;;;;;;;5025835;28;20180;-88
2023/01/15 13:56:47;;;;;;;5.70;4.10;;;;;;;;;;5036196;28;20201;-88
2023/01/15 13:59:51;;;;;;;10.03;9.03;;;;;;;;;;5013913;28;20283;-87
2023/01/15 14:02:58;;;;;;;33.73;23.67;;;;;;;;;;5013262;28;20216;-87
2023/01/15 14:06:08;;;;;;;8.67;5.43;;;;;;;;;;5015343;28;20185;-88
2023/01/15 14:09:21;;;;;;;1.60;1.50;;;;;;;;;;5002546;28;20181;-88
2023/01/15 14:12:48;;;;;;;1.70;1.27;;;;;;;;;;5004504;28;20700;-88
2023/01/15 14:16:15;;;;;;;0.97;0.80;;;;;;;;;;5013509;28;20188;-88
2023/01/15 14:19:53;;;;;;;2.20;1.60;;;;;;;;;;5013838;28;20208;-88
2023/01/15 14:23:37;;;;;;;4.10;3.27;;;;;;;;;;5013241;28;20216;-88
2023/01/15 14:26:58;;;;;;;8.20;7.17;;;;;;;;;;4991206;28;20201;-87
2023/01/15 14:30:31;;;;;;;4.73;4.23;;;;;;;;;;5002002;28;20170;-88
2023/01/15 14:34:03;;;;;;;0.90;0.90;;;;;;;;;;5025309;28;20185;-88
2023/01/15 14:37:14;;;;;;;6.67;5.03;;;;;;;;;;5013057;28;20177;-88
2023/01/15 14:40:24;;;;;;;24.30;15.37;;;;;;;;;;5001556;28;20434;-87
2023/01/15 14:43:32;;;;;;;14.83;9.50;;;;;;;;;;5001272;28;20181;-88
2023/01/15 14:46:40;;;;;;;6.20;5.60;;;;;;;;;;5023906;28;20185;-88
2023/01/15 14:49:48;;;;;;;0.83;0.83;;;;;;;;;;5015868;28;20177;-87
2023/01/15 14:52:58;;;;;;;0.70;0.70;;;;;;;;;;5017155;28;20248;-87
2023/01/15 14:56:05;;;;;;;0.60;0.60;;;;;;;;;;5012150;28;20185;-87
2023/01/15 14:59:38;;;;;;;0.40;0.40;;;;;;;;;;5022398;28;20181;-87
2023/01/15 15:02:43;;;;;;;1.43;1.30;;;;;;;;;;5010936;28;20212;-88
2023/01/15 15:05:47;;;;;;;3.67;2.83;;;;;;;;;;5011694;28;20197;-88
2023/01/15 15:08:57;;;;;;;14.73;7.00;;;;;;;;;;5011819;28;20196;-88
2023/01/15 15:12:32;;;;;;;11.23;7.03;;;;;;;;;;5012027;28;20269;-88
2023/01/15 15:16:07;;;;;;;1.40;1.27;;;;;;;;;;5002677;28;20177;-88
2023/01/15 15:19:26;;;;;;;0.53;0.53;;;;;;;;;;5013047;28;20181;-88
2023/01/15 15:22:31;;;;;;;0.87;0.87;;;;;;;;;;5011905;28;20225;-88
2023/01/15 15:25:37;;;;;;;0.53;0.53;;;;;;;;;;5022119;28;20172;-87
2023/01/15 15:28:42;;;;;;;0.40;0.40;;;;;;;;;;5023460;28;20192;-88
2023/01/15 15:31:55;;;;;;;0.40;0.40;;;;;;;;;;5001290;28;20217;-88
2023/01/15 15:34:59;;;;;;;1.17;0.60;;;;;;;;;;5010588;28;20181;-89
2023/01/15 15:38:05;;;;;;;0.57;0.57;;;;;;;;;;5023463;28;20177;-88
2023/01/15 15:41:11;;;;;;;0.70;0.60;;;;;;;;;;5010369;28;20220;-88
2023/01/15 15:51:38;;;;;;;0.80;0.60;;;;;;;;;;5021801;28;20212;-88
2023/01/15 15:54:42;;;;;;;0.70;0.60;;;;;;;;;;5010054;28;20173;-88
2023/01/15 15:57:52;;;;;;;1.53;1.43;;;;;;;;;;5000069;28;20181;-88
2023/01/15 16:00:56;;;;;;;1.50;1.40;;;;;;;;;;5015144;28;20228;-89
2023/01/15 16:04:00;;;;;;;2.10;1.87;;;;;;;;;;5011312;28;20177;-88
2023/01/15 16:07:19;;;;;;;11.23;7.30;;;;;;;;;;5011404;28;20178;-87
2023/01/15 16:10:29;;;;;;;2.87;2.37;;;;;;;;;;5011228;28;20197;-88
2023/01/15 16:13:39;;;;;;;8.30;6.70;;;;;;;;;;5021953;28;20177;-87
2023/01/15 16:16:45;;;;;;;15.17;11.23;;;;;;;;;;5023843;28;20181;-88
2023/01/15 16:19:49;;;;;;;25.83;16.83;;;;;;;;;;4999415;28;20180;-87
2023/01/15 16:22:56;;;;;;;22.50;13.53;;;;;;;;;;5011319;28;20213;-87
2023/01/15 16:26:18;;;;;;;9.50;7.90;;;;;;;;;;5024091;28;20632;-88
2023/01/15 16:29:29;;;;;;;3.40;2.87;;;;;;;;;;5014971;28;20177;-88
2023/01/15 16:32:35;;;;;;;1.30;1.20;;;;;;;;;;5014767;28;20213;-88
2023/01/15 16:35:40;;;;;;;1.20;1.10;;;;;;;;;;5015040;28;20177;-87
2023/01/15 16:38:47;;;;;;;1.20;1.10;;;;;;;;;;5014911;28;20181;-88
2023/01/15 16:41:56;;;;;;;1.60;1.10;;;;;;;;;;5014000;28;20228;-88
2023/01/15 16:45:06;;;;;;;2.37;1.70;;;;;;;;;;5013835;28;20197;-88
2023/01/15 16:48:21;;;;;;;6.50;5.67;;;;;;;;;;5003042;28;20201;-88
2023/01/15 16:51:26;;;;;;;23.50;18.87;;;;;;;;;;5025518;28;20213;-88
2023/01/15 16:54:30;;;;;;;22.77;16.73;;;;;;;;;;5013711;28;20177;-88
2023/01/15 16:57:34;;;;;;;10.03;6.80;;;;;;;;;;5029823;28;20176;-88
2023/01/15 17:00:40;;;;;;;5.67;3.70;;;;;;;;;;5025230;28;20205;-87
2023/01/15 17:03:44;;;;;;;2.17;1.90;;;;;;;;;;5013705;28;20644;-87
2023/01/15 17:07:14;;;;;;;1.40;1.30;;;;;;;;;;5025526;28;20197;-87
2023/01/15 17:10:27;;;;;;;1.47;1.20;;;;;;;;;;5014183;28;20177;-88
2023/01/15 17:13:36;;;;;;;6.53;4.50;;;;;;;;;;5024976;28;20177;-88
2023/01/15 17:16:40;;;;;;;4.63;3.43;;;;;;;;;;5024604;28;20181;-87
2023/01/15 17:19:44;;;;;;;4.40;2.90;;;;;;;;;;5014087;28;20537;-87
2023/01/15 17:22:48;;;;;;;2.50;2.10;;;;;;;;;;5014973;28;20216;-87
2023/01/15 17:25:54;;;;;;;4.87;3.00;;;;;;;;;;5002392;28;20181;-87
2023/01/15 17:28:58;;;;;;;1.60;1.20;;;;;;;;;;5014591;28;20181;-88
2023/01/15 17:32:03;;;;;;;15.20;10.47;;;;;;;;;;5014768;28;20212;-87
2023/01/15 17:35:31;;;;;;;16.90;10.43;;;;;;;;;;5013821;28;20200;-89
2023/01/15 17:38:35;;;;;;;40.37;20.20;;;;;;;;;;5028767;28;20177;-87
2023/01/15 17:41:39;;;;;;;13.77;7.13;;;;;;;;;;5012839;28;20220;-89
2023/01/15 17:44:44;;;;;;;75.40;41.97;;;;;;;;;;5001147;28;20667;-89
2023/01/15 17:47:49;;;;;;;6.70;6.10;;;;;;;;;;5012518;28;20177;-88
2023/01/15 17:50:54;;;;;;;1.50;1.40;;;;;;;;;;5012875;28;20193;-88
2023/01/15 17:53:58;;;;;;;0.73;0.73;;;;;;;;;;5012119;28;20193;-88
2023/01/15 18:07:15;;;;;;;4.43;3.90;;;;;;;;;;5023725;28;20181;-89
2023/01/15 18:10:20;;;;;;;4.13;2.63;;;;;;;;;;5012139;28;20173;-89
2023/01/15 18:13:24;;;;;;;2.60;2.20;;;;;;;;;;5035805;28;20176;-89
2023/01/15 18:16:28;;;;;;;3.10;1.60;;;;;;;;;;5023289;28;20180;-89
2023/01/15 18:19:32;;;;;;;2.50;1.23;;;;;;;;;;5023210;28;20177;-89
2023/01/15 18:22:37;;;;;;;2.17;1.40;;;;;;;;;;5011867;28;20216;-88
2023/01/15 18:25:44;;;;;;;2.50;1.33;;;;;;;;;;5011718;28;20176;-89
2023/01/15 18:28:49;;;;;;;2.03;1.87;;;;;;;;;;5022933;28;20181;-89
2023/01/15 18:31:53;;;;;;;1.87;1.60;;;;;;;;;;5011698;28;20684;-90
2023/01/15 18:34:57;;;;;;;47.27;27.87;;;;;;;;;;5011512;28;20173;-89
2023/01/15 18:38:02;;;;;;;81.73;46.93;;;;;;;;;;5023030;28;20640;-89
2023/01/15 18:48:01;;;;;;;70.20;39.87;;;;;;;;;;5034736;28;20173;-89
2023/01/15 18:51:07;;;;;;;23.83;15.33;;;;;;;;;;5000329;28;20200;-90
2023/01/15 18:54:11;;;;;;;11.70;10.30;;;;;;;;;;5033991;28;20548;-89
2023/01/15 18:57:16;;;;;;;1.97;1.73;;;;;;;;;;5023099;28;20172;-89
2023/01/15 19:00:22;;;;;;;1.93;1.60;;;;;;;;;;5011658;28;20181;-89
2023/01/15 19:03:27;;;;;;;3.97;2.10;;;;;;;;;;5001266;28;20185;-88
2023/01/15 19:06:32;;;;;;;3.00;1.60;;;;;;;;;;5023590;28;20897;-88
2023/01/15 19:09:37;;;;;;;2.27;1.40;;;;;;;;;;5000696;28;20557;-88
2023/01/15 19:12:43;;;;;;;1.87;1.33;;;;;;;;;;5011683;28;20611;-89
2023/01/15 19:19:10;;;;;;;5.40;1.20;;;;;;;;;;5012064;28;20552;-88
2023/01/15 19:25:41;;;;;;;1.67;0.90;;;;;;;;;;5013568;28;20635;-89
2023/01/15 19:28:45;;;;;;;3.17;1.00;;;;;;;;;;5023562;28;20591;-88
2023/01/15 19:31:50;;;;;;;5.23;1.23;;;;;;;;;;5011876;28;20615;-90
2023/01/15 19:34:54;;;;;;;1.53;1.10;;;;;;;;;;5012232;28;20585;-89
2023/01/15 19:37:59;;;;;;;2.47;1.20;;;;;;;;;;5001309;28;20544;-89
2023/01/15 19:51:16;;;;;;;1.50;1.00;;;;;;;;;;5011641;28;20623;-88
2023/01/15 19:54:54;;;;;;;3.90;1.60;;;;;;;;;;5011444;28;20599;-88
2023/01/15 19:57:46;;;;;;;3.80;1.43;;;;;;;;;;5022123;28;20603;-88
2023/01/15 20:00:51;;;;;;;2.90;1.30;;;;;;;;;;5023518;28;20603;-88
2023/01/15 20:04:05;;;;;;;1.33;1.10;;;;;;;;;;5018779;28;20548;-89
2023/01/15 20:07:25;;;;;;;3.63;1.27;;;;;;;;;;5015854;28;20557;-88
2023/01/15 20:10:35;;;;;;;4.30;1.10;;;;;;;;;;5015737;28;20595;-87
2023/01/15 20:13:48;;;;;;;2.97;1.10;;;;;;;;;;5026581;28;21110;-88
2023/01/15 20:16:52;;;;;;;2.30;1.17;;;;;;;;;;5015297;28;20913;-88
2023/01/15 20:19:57;;;;;;;1.87;1.00;;;;;;;;;;5026789;28;20556;-87
2023/01/15 20:23:01;;;;;;;2.10;0.90;;;;;;;;;;5026187;28;20643;-88
2023/01/15 20:26:11;;;;;;;2.37;1.00;;;;;;;;;;5014880;28;20551;-89
2023/01/15 20:29:15;;;;;;;1.63;0.83;;;;;;;;;;5003618;28;20539;-88